sensor_id;sensor_type;location;lat;lon;timestamp;temperature;humidity
11818;DHT22;5966;52.402;5.322;2023-03-01T00:01:51;1.70;99.90
11818;DHT22;5966;52.402;5.322;2023-03-01T00:04:19;1.70;99.90
11818;DHT22;5966;52.402;5.322;2023-03-01T00:06:48;1.60;99.90
11818;DHT22;5966;52.402;5.322;2023-03-01T00:09:17;1.60;99.90
11818;DHT22;5966;52.402;5.322;2023-03-01T00:11:45;1.60;99.90
11818;DHT22;5966;52.402;5.322;2023-03-01T00:14:13;1.50;99.90
11818;DHT22;5966;52.402;5.322;2023-03-01T00:16:43;1.50;99.90
11818;DHT22;5966;52.402;5.322;2023-03-01T00:19:13;1.50;99.90
11818;DHT22;5966;52.402;5.322;2023-03-01T00:21:42;1.40;99.90
11818;DHT22;5966;52.402;5.322;2023-03-01T00:24:11;1.40;99.90
11818;DHT22;5966;52.402;5.322;2023-03-01T00:26:40;1.40;99.90
11818;DHT22;5966;52.402;5.322;2023-03-01T00:29:08;1.40;99.90
11818;DHT22;5966;52.402;5.322;2023-03-01T00:31:36;1.40;99.90
11818;DHT22;5966;52.402;5.322;2023-03-01T00:34:04;1.40;99.90
11818;DHT22;5966;52.402;5.322;2023-03-01T00:36:35;1.40;99.90
11818;DHT22;5966;52.402;5.322;2023-03-01T00:39:05;1.40;99.90
11818;DHT22;5966;52.402;5.322;2023-03-01T00:41:35;1.40;99.90
11818;DHT22;5966;52.402;5.322;2023-03-01T00:44:03;1.30;99.90
11818;DHT22;5966;52.402;5.322;2023-03-01T00:46:32;1.30;99.90
11818;DHT22;5966;52.402;5.322;2023-03-01T00:49:01;1.20;99.90
11818;DHT22;5966;52.402;5.322;2023-03-01T00:51:32;1.20;99.90
11818;DHT22;5966;52.402;5.322;2023-03-01T00:54:02;1.20;99.90
11818;DHT22;5966;52.402;5.322;2023-03-01T00:56:30;1.10;99.90
11818;DHT22;5966;52.402;5.322;2023-03-01T00:59:03;1.10;99.90
11818;DHT22;5966;52.402;5.322;2023-03-01T01:01:31;1.00;99.90
11818;DHT22;5966;52.402;5.322;2023-03-01T01:04:05;0.90;99.90
11818;DHT22;5966;52.402;5.322;2023-03-01T01:06:36;0.90;99.90
11818;DHT22;5966;52.402;5.322;2023-03-01T01:09:07;0.90;99.90
11818;DHT22;5966;52.402;5.322;2023-03-01T01:11:47;0.90;99.90
11818;DHT22;5966;52.402;5.322;2023-03-01T01:14:22;0.90;99.90
11818;DHT22;5966;52.402;5.322;2023-03-01T01:16:54;0.90;99.90
11818;DHT22;5966;52.402;5.322;2023-03-01T01:19:28;0.80;99.90
11818;DHT22;5966;52.402;5.322;2023-03-01T01:21:58;0.80;99.90
11818;DHT22;5966;52.402;5.322;2023-03-01T01:24:26;0.70;99.90
11818;DHT22;5966;52.402;5.322;2023-03-01T01:26:54;0.70;99.90
11818;DHT22;5966;52.402;5.322;2023-03-01T01:29:24;0.70;99.90
11818;DHT22;5966;52.402;5.322;2023-03-01T01:31:52;0.60;99.90
11818;DHT22;5966;52.402;5.322;2023-03-01T01:34:21;0.50;99.90
11818;DHT22;5966;52.402;5.322;2023-03-01T01:36:50;0.50;99.90
11818;DHT22;5966;52.402;5.322;2023-03-01T01:39:20;0.50;99.90
11818;DHT22;5966;52.402;5.322;2023-03-01T01:41:48;0.40;99.90
11818;DHT22;5966;52.402;5.322;2023-03-01T01:44:19;0.40;99.90
11818;DHT22;5966;52.402;5.322;2023-03-01T01:46:53;0.40;99.90
11818;DHT22;5966;52.402;5.322;2023-03-01T01:49:36;0.40;99.90
11818;DHT22;5966;52.402;5.322;2023-03-01T01:52:09;0.40;99.90
11818;DHT22;5966;52.402;5.322;2023-03-01T01:54:55;0.40;99.90
11818;DHT22;5966;52.402;5.322;2023-03-01T01:57:38;0.30;99.90
11818;DHT22;5966;52.402;5.322;2023-03-01T02:00:27;0.30;99.90
11818;DHT22;5966;52.402;5.322;2023-03-01T02:03:07;0.20;99.90
11818;DHT22;5966;52.402;5.322;2023-03-01T02:05:42;0.20;99.90
11818;DHT22;5966;52.402;5.322;2023-03-01T02:08:25;0.30;99.90
11818;DHT22;5966;52.402;5.322;2023-03-01T02:10:57;0.30;99.90
11818;DHT22;5966;52.402;5.322;2023-03-01T02:13:35;0.30;99.90
11818;DHT22;5966;52.402;5.322;2023-03-01T02:16:10;0.30;99.90
11818;DHT22;5966;52.402;5.322;2023-03-01T02:18:42;0.20;99.90
11818;DHT22;5966;52.402;5.322;2023-03-01T02:21:36;0.20;99.90
11818;DHT22;5966;52.402;5.322;2023-03-01T02:24:13;0.20;99.90
11818;DHT22;5966;52.402;5.322;2023-03-01T02:26:49;0.10;99.90
11818;DHT22;5966;52.402;5.322;2023-03-01T02:29:24;0.10;99.90
11818;DHT22;5966;52.402;5.322;2023-03-01T02:31:56;0.10;99.90
11818;DHT22;5966;52.402;5.322;2023-03-01T02:34:26;0.10;99.90
11818;DHT22;5966;52.402;5.322;2023-03-01T02:37:01;0.10;99.90
11818;DHT22;5966;52.402;5.322;2023-03-01T02:39:34;0.10;99.90
11818;DHT22;5966;52.402;5.322;2023-03-01T02:42:11;0.10;99.90
11818;DHT22;5966;52.402;5.322;2023-03-01T02:44:44;0.10;99.90
11818;DHT22;5966;52.402;5.322;2023-03-01T02:47:12;0.00;99.90
11818;DHT22;5966;52.402;5.322;2023-03-01T02:49:40;0.00;99.90
11818;DHT22;5966;52.402;5.322;2023-03-01T02:52:28;-0.10;99.90
11818;DHT22;5966;52.402;5.322;2023-03-01T02:55:02;-0.10;99.90
11818;DHT22;5966;52.402;5.322;2023-03-01T02:57:34;-0.10;99.90
11818;DHT22;5966;52.402;5.322;2023-03-01T03:00:09;-0.10;99.90
11818;DHT22;5966;52.402;5.322;2023-03-01T03:02:48;-0.10;99.90
11818;DHT22;5966;52.402;5.322;2023-03-01T03:05:18;-0.20;99.90
11818;DHT22;5966;52.402;5.322;2023-03-01T03:07:48;-0.20;99.90
11818;DHT22;5966;52.402;5.322;2023-03-01T03:10:24;-0.20;99.90
11818;DHT22;5966;52.402;5.322;2023-03-01T03:12:56;-0.20;99.90
11818;DHT22;5966;52.402;5.322;2023-03-01T03:15:29;-0.30;99.90
11818;DHT22;5966;52.402;5.322;2023-03-01T03:17:58;-0.30;99.90
11818;DHT22;5966;52.402;5.322;2023-03-01T03:20:27;-0.30;99.90
11818;DHT22;5966;52.402;5.322;2023-03-01T03:22:57;-0.30;99.90
11818;DHT22;5966;52.402;5.322;2023-03-01T03:26:03;-0.30;99.90
11818;DHT22;5966;52.402;5.322;2023-03-01T03:28:37;-0.20;99.90
11818;DHT22;5966;52.402;5.322;2023-03-01T03:31:08;-0.20;99.90
11818;DHT22;5966;52.402;5.322;2023-03-01T03:33:36;-0.20;99.90
11818;DHT22;5966;52.402;5.322;2023-03-01T03:36:05;-0.30;99.90
11818;DHT22;5966;52.402;5.322;2023-03-01T03:38:33;-0.30;99.90
11818;DHT22;5966;52.402;5.322;2023-03-01T03:41:02;-0.30;99.90
11818;DHT22;5966;52.402;5.322;2023-03-01T03:43:33;-0.30;99.90
11818;DHT22;5966;52.402;5.322;2023-03-01T03:46:02;-0.40;99.90
11818;DHT22;5966;52.402;5.322;2023-03-01T03:48:35;-0.40;99.90
11818;DHT22;5966;52.402;5.322;2023-03-01T03:51:03;-0.40;99.90
11818;DHT22;5966;52.402;5.322;2023-03-01T03:53:32;-0.40;99.90
11818;DHT22;5966;52.402;5.322;2023-03-01T03:56:00;-0.40;99.90
11818;DHT22;5966;52.402;5.322;2023-03-01T03:58:28;-0.40;99.90
11818;DHT22;5966;52.402;5.322;2023-03-01T04:00:57;-0.40;99.90
11818;DHT22;5966;52.402;5.322;2023-03-01T04:03:26;-0.40;99.90
11818;DHT22;5966;52.402;5.322;2023-03-01T04:05:57;-0.40;99.90
11818;DHT22;5966;52.402;5.322;2023-03-01T04:08:25;-0.50;99.90
11818;DHT22;5966;52.402;5.322;2023-03-01T04:10:58;-0.50;99.90
11818;DHT22;5966;52.402;5.322;2023-03-01T04:13:47;-0.50;99.90
11818;DHT22;5966;52.402;5.322;2023-03-01T04:16:15;-0.50;99.90
11818;DHT22;5966;52.402;5.322;2023-03-01T04:18:44;-0.50;99.90
11818;DHT22;5966;52.402;5.322;2023-03-01T04:21:14;-0.50;99.90
11818;DHT22;5966;52.402;5.322;2023-03-01T04:23:41;-0.50;99.90
11818;DHT22;5966;52.402;5.322;2023-03-01T04:26:09;-0.50;99.90
11818;DHT22;5966;52.402;5.322;2023-03-01T04:28:39;-0.60;99.90
11818;DHT22;5966;52.402;5.322;2023-03-01T04:31:11;-0.60;99.90
11818;DHT22;5966;52.402;5.322;2023-03-01T04:33:46;-0.60;99.90
11818;DHT22;5966;52.402;5.322;2023-03-01T04:36:17;-0.60;99.90
11818;DHT22;5966;52.402;5.322;2023-03-01T04:38:45;-0.60;99.90
11818;DHT22;5966;52.402;5.322;2023-03-01T04:41:16;-0.60;99.90
11818;DHT22;5966;52.402;5.322;2023-03-01T04:43:45;-0.70;99.90
11818;DHT22;5966;52.402;5.322;2023-03-01T04:46:15;-0.70;99.90
11818;DHT22;5966;52.402;5.322;2023-03-01T04:48:44;-0.70;99.90
11818;DHT22;5966;52.402;5.322;2023-03-01T04:51:14;-0.80;99.90
11818;DHT22;5966;52.402;5.322;2023-03-01T04:53:43;-0.80;99.90
11818;DHT22;5966;52.402;5.322;2023-03-01T04:56:12;-0.80;99.90
11818;DHT22;5966;52.402;5.322;2023-03-01T04:58:41;-0.80;99.90
11818;DHT22;5966;52.402;5.322;2023-03-01T05:01:10;-0.80;99.90
11818;DHT22;5966;52.402;5.322;2023-03-01T05:03:43;-0.70;99.90
11818;DHT22;5966;52.402;5.322;2023-03-01T05:06:11;-0.70;99.90
11818;DHT22;5966;52.402;5.322;2023-03-01T05:08:41;-0.70;99.90
11818;DHT22;5966;52.402;5.322;2023-03-01T05:11:10;-0.70;99.90
11818;DHT22;5966;52.402;5.322;2023-03-01T05:13:39;-0.70;99.90
11818;DHT22;5966;52.402;5.322;2023-03-01T05:16:07;-0.70;99.90
11818;DHT22;5966;52.402;5.322;2023-03-01T05:18:39;-0.70;99.90
11818;DHT22;5966;52.402;5.322;2023-03-01T05:21:09;-0.70;99.90
11818;DHT22;5966;52.402;5.322;2023-03-01T05:23:38;-0.70;99.90
11818;DHT22;5966;52.402;5.322;2023-03-01T05:26:08;-0.70;99.90
11818;DHT22;5966;52.402;5.322;2023-03-01T05:28:53;-0.80;99.90
11818;DHT22;5966;52.402;5.322;2023-03-01T05:31:25;-0.90;99.90
11818;DHT22;5966;52.402;5.322;2023-03-01T05:33:53;-0.90;99.90
11818;DHT22;5966;52.402;5.322;2023-03-01T05:36:21;-0.90;99.90
11818;DHT22;5966;52.402;5.322;2023-03-01T05:38:49;-0.90;99.90
11818;DHT22;5966;52.402;5.322;2023-03-01T05:41:18;-0.90;99.90
11818;DHT22;5966;52.402;5.322;2023-03-01T05:43:46;-0.80;99.90
11818;DHT22;5966;52.402;5.322;2023-03-01T05:46:14;-0.80;99.90
11818;DHT22;5966;52.402;5.322;2023-03-01T05:48:42;-0.80;99.90
11818;DHT22;5966;52.402;5.322;2023-03-01T05:51:11;-0.80;99.90
11818;DHT22;5966;52.402;5.322;2023-03-01T05:53:39;-0.90;99.90
11818;DHT22;5966;52.402;5.322;2023-03-01T05:56:07;-0.90;99.90
11818;DHT22;5966;52.402;5.322;2023-03-01T05:58:36;-0.90;99.90
11818;DHT22;5966;52.402;5.322;2023-03-01T06:01:05;-1.00;99.90
11818;DHT22;5966;52.402;5.322;2023-03-01T06:03:38;-1.00;99.90
11818;DHT22;5966;52.402;5.322;2023-03-01T06:06:06;-1.10;99.90
11818;DHT22;5966;52.402;5.322;2023-03-01T06:08:34;-1.10;99.90
11818;DHT22;5966;52.402;5.322;2023-03-01T06:11:02;-1.00;99.90
11818;DHT22;5966;52.402;5.322;2023-03-01T06:13:30;-1.00;99.90
11818;DHT22;5966;52.402;5.322;2023-03-01T06:15:59;-1.00;99.90
11818;DHT22;5966;52.402;5.322;2023-03-01T06:18:27;-0.90;99.90
11818;DHT22;5966;52.402;5.322;2023-03-01T06:20:56;-0.90;99.90
11818;DHT22;5966;52.402;5.322;2023-03-01T06:23:24;-0.90;99.90
11818;DHT22;5966;52.402;5.322;2023-03-01T06:25:52;-0.90;99.90
11818;DHT22;5966;52.402;5.322;2023-03-01T06:28:21;-0.80;99.90
11818;DHT22;5966;52.402;5.322;2023-03-01T06:30:50;-0.70;99.90
11818;DHT22;5966;52.402;5.322;2023-03-01T06:33:19;-0.70;99.90
11818;DHT22;5966;52.402;5.322;2023-03-01T06:35:48;-0.60;99.90
11818;DHT22;5966;52.402;5.322;2023-03-01T06:38:16;-0.60;99.90
11818;DHT22;5966;52.402;5.322;2023-03-01T06:40:51;-0.60;99.90
11818;DHT22;5966;52.402;5.322;2023-03-01T06:43:19;-0.70;99.90
11818;DHT22;5966;52.402;5.322;2023-03-01T06:45:47;-0.70;99.90
11818;DHT22;5966;52.402;5.322;2023-03-01T06:48:15;-0.70;99.90
11818;DHT22;5966;52.402;5.322;2023-03-01T06:50:44;-0.70;99.90
11818;DHT22;5966;52.402;5.322;2023-03-01T06:53:13;-0.80;99.90
11818;DHT22;5966;52.402;5.322;2023-03-01T06:55:41;-0.80;99.90
11818;DHT22;5966;52.402;5.322;2023-03-01T06:58:09;-0.80;99.90
11818;DHT22;5966;52.402;5.322;2023-03-01T07:00:37;-0.80;99.90
11818;DHT22;5966;52.402;5.322;2023-03-01T07:03:08;-0.80;99.90
11818;DHT22;5966;52.402;5.322;2023-03-01T07:05:36;-0.90;99.90
11818;DHT22;5966;52.402;5.322;2023-03-01T07:08:06;-1.00;99.90
11818;DHT22;5966;52.402;5.322;2023-03-01T07:10:34;-1.00;99.90
11818;DHT22;5966;52.402;5.322;2023-03-01T07:13:02;-1.00;99.90
11818;DHT22;5966;52.402;5.322;2023-03-01T07:15:30;-1.10;99.90
11818;DHT22;5966;52.402;5.322;2023-03-01T07:17:59;-1.10;99.90
11818;DHT22;5966;52.402;5.322;2023-03-01T07:20:27;-1.10;99.90
11818;DHT22;5966;52.402;5.322;2023-03-01T07:22:55;-1.10;99.90
11818;DHT22;5966;52.402;5.322;2023-03-01T07:25:26;-1.10;99.90
11818;DHT22;5966;52.402;5.322;2023-03-01T07:27:54;-1.10;99.90
11818;DHT22;5966;52.402;5.322;2023-03-01T07:30:22;-1.10;99.90
11818;DHT22;5966;52.402;5.322;2023-03-01T07:32:52;-1.10;99.90
11818;DHT22;5966;52.402;5.322;2023-03-01T07:35:21;-1.10;99.90
11818;DHT22;5966;52.402;5.322;2023-03-01T07:37:49;-1.10;99.90
11818;DHT22;5966;52.402;5.322;2023-03-01T07:40:17;-1.10;99.90
11818;DHT22;5966;52.402;5.322;2023-03-01T07:42:47;-1.10;99.90
11818;DHT22;5966;52.402;5.322;2023-03-01T07:45:15;-1.10;99.90
11818;DHT22;5966;52.402;5.322;2023-03-01T07:47:43;-1.10;99.90
11818;DHT22;5966;52.402;5.322;2023-03-01T07:50:11;-1.10;99.90
11818;DHT22;5966;52.402;5.322;2023-03-01T07:52:40;-1.00;99.90
11818;DHT22;5966;52.402;5.322;2023-03-01T07:55:08;-0.90;99.90
11818;DHT22;5966;52.402;5.322;2023-03-01T07:57:37;-0.80;99.90
11818;DHT22;5966;52.402;5.322;2023-03-01T08:00:09;-0.70;99.90
11818;DHT22;5966;52.402;5.322;2023-03-01T08:02:37;-0.60;99.90
11818;DHT22;5966;52.402;5.322;2023-03-01T08:05:07;-0.50;99.90
11818;DHT22;5966;52.402;5.322;2023-03-01T08:07:35;-0.40;99.90
11818;DHT22;5966;52.402;5.322;2023-03-01T08:10:04;-0.30;99.90
11818;DHT22;5966;52.402;5.322;2023-03-01T08:12:32;-0.20;99.90
11818;DHT22;5966;52.402;5.322;2023-03-01T08:15:00;-0.10;99.90
11818;DHT22;5966;52.402;5.322;2023-03-01T08:17:30;0.00;99.90
11818;DHT22;5966;52.402;5.322;2023-03-01T08:19:57;0.10;99.90
11818;DHT22;5966;52.402;5.322;2023-03-01T08:22:25;0.20;99.90
11818;DHT22;5966;52.402;5.322;2023-03-01T08:24:53;0.30;99.90
11818;DHT22;5966;52.402;5.322;2023-03-01T08:27:22;0.40;99.90
11818;DHT22;5966;52.402;5.322;2023-03-01T08:29:51;0.50;99.90
11818;DHT22;5966;52.402;5.322;2023-03-01T08:32:19;0.60;99.90
11818;DHT22;5966;52.402;5.322;2023-03-01T08:34:49;0.70;99.90
11818;DHT22;5966;52.402;5.322;2023-03-01T08:37:17;0.80;99.90
11818;DHT22;5966;52.402;5.322;2023-03-01T08:39:45;0.90;99.90
11818;DHT22;5966;52.402;5.322;2023-03-01T08:42:13;1.00;99.90
11818;DHT22;5966;52.402;5.322;2023-03-01T08:44:41;1.10;99.90
11818;DHT22;5966;52.402;5.322;2023-03-01T08:47:11;1.20;99.90
11818;DHT22;5966;52.402;5.322;2023-03-01T08:49:39;1.30;99.90
11818;DHT22;5966;52.402;5.322;2023-03-01T08:52:09;1.40;99.90
11818;DHT22;5966;52.402;5.322;2023-03-01T08:54:37;1.50;99.90
11818;DHT22;5966;52.402;5.322;2023-03-01T08:57:05;1.70;99.90
11818;DHT22;5966;52.402;5.322;2023-03-01T08:59:33;1.80;99.90
11818;DHT22;5966;52.402;5.322;2023-03-01T09:02:03;1.90;99.90
11818;DHT22;5966;52.402;5.322;2023-03-01T09:04:32;2.10;99.90
11818;DHT22;5966;52.402;5.322;2023-03-01T09:07:00;2.30;99.90
11818;DHT22;5966;52.402;5.322;2023-03-01T09:09:29;2.40;99.90
11818;DHT22;5966;52.402;5.322;2023-03-01T09:11:57;2.50;99.90
11818;DHT22;5966;52.402;5.322;2023-03-01T09:14:25;2.70;99.90
11818;DHT22;5966;52.402;5.322;2023-03-01T09:16:54;2.80;99.90
11818;DHT22;5966;52.402;5.322;2023-03-01T09:19:22;3.00;99.90
11818;DHT22;5966;52.402;5.322;2023-03-01T09:21:52;3.10;99.90
11818;DHT22;5966;52.402;5.322;2023-03-01T09:24:24;3.20;99.90
11818;DHT22;5966;52.402;5.322;2023-03-01T09:26:55;3.20;99.90
11818;DHT22;5966;52.402;5.322;2023-03-01T09:29:23;3.30;99.90
11818;DHT22;5966;52.402;5.322;2023-03-01T09:31:52;3.40;99.90
11818;DHT22;5966;52.402;5.322;2023-03-01T09:34:22;3.40;99.90
11818;DHT22;5966;52.402;5.322;2023-03-01T09:36:51;3.40;99.90
11818;DHT22;5966;52.402;5.322;2023-03-01T09:39:19;3.50;99.90
11818;DHT22;5966;52.402;5.322;2023-03-01T09:41:50;3.50;99.90
11818;DHT22;5966;52.402;5.322;2023-03-01T09:44:31;3.60;99.90
11818;DHT22;5966;52.402;5.322;2023-03-01T09:47:00;3.60;99.90
11818;DHT22;5966;52.402;5.322;2023-03-01T09:49:31;3.70;99.90
11818;DHT22;5966;52.402;5.322;2023-03-01T09:52:04;3.70;99.90
11818;DHT22;5966;52.402;5.322;2023-03-01T09:54:37;3.70;99.90
11818;DHT22;5966;52.402;5.322;2023-03-01T09:57:18;3.80;99.90
11818;DHT22;5966;52.402;5.322;2023-03-01T10:00:03;3.80;99.90
11818;DHT22;5966;52.402;5.322;2023-03-01T10:02:39;3.80;99.90
11818;DHT22;5966;52.402;5.322;2023-03-01T10:05:26;3.90;99.90
11818;DHT22;5966;52.402;5.322;2023-03-01T10:08:06;4.00;99.90
11818;DHT22;5966;52.402;5.322;2023-03-01T10:10:44;4.00;99.90
11818;DHT22;5966;52.402;5.322;2023-03-01T10:13:17;4.10;99.90
11818;DHT22;5966;52.402;5.322;2023-03-01T10:15:52;4.10;99.90
11818;DHT22;5966;52.402;5.322;2023-03-01T10:18:26;4.10;99.90
11818;DHT22;5966;52.402;5.322;2023-03-01T10:20:57;4.10;99.90
11818;DHT22;5966;52.402;5.322;2023-03-01T10:23:28;4.10;99.90
11818;DHT22;5966;52.402;5.322;2023-03-01T10:26:07;4.20;99.90
11818;DHT22;5966;52.402;5.322;2023-03-01T10:28:43;4.20;99.90
11818;DHT22;5966;52.402;5.322;2023-03-01T10:31:18;4.20;99.90
11818;DHT22;5966;52.402;5.322;2023-03-01T10:33:47;4.20;99.90
11818;DHT22;5966;52.402;5.322;2023-03-01T10:36:20;4.30;99.90
11818;DHT22;5966;52.402;5.322;2023-03-01T10:38:50;4.30;99.90
11818;DHT22;5966;52.402;5.322;2023-03-01T10:41:21;4.40;99.90
11818;DHT22;5966;52.402;5.322;2023-03-01T10:43:52;4.50;99.90
11818;DHT22;5966;52.402;5.322;2023-03-01T10:46:27;4.50;99.90
11818;DHT22;5966;52.402;5.322;2023-03-01T10:49:13;4.60;99.90
11818;DHT22;5966;52.402;5.322;2023-03-01T10:51:43;4.60;99.90
11818;DHT22;5966;52.402;5.322;2023-03-01T10:54:18;4.70;99.90
11818;DHT22;5966;52.402;5.322;2023-03-01T10:56:48;4.80;99.90
11818;DHT22;5966;52.402;5.322;2023-03-01T10:59:23;4.80;99.90
11818;DHT22;5966;52.402;5.322;2023-03-01T11:02:16;4.90;99.90
11818;DHT22;5966;52.402;5.322;2023-03-01T11:04:59;4.90;99.90
11818;DHT22;5966;52.402;5.322;2023-03-01T11:07:28;5.00;99.90
11818;DHT22;5966;52.402;5.322;2023-03-01T11:09:56;5.00;99.90
11818;DHT22;5966;52.402;5.322;2023-03-01T11:12:24;5.00;99.90
11818;DHT22;5966;52.402;5.322;2023-03-01T11:14:55;5.00;99.90
11818;DHT22;5966;52.402;5.322;2023-03-01T11:17:27;5.00;99.90
11818;DHT22;5966;52.402;5.322;2023-03-01T11:20:15;5.00;99.90
11818;DHT22;5966;52.402;5.322;2023-03-01T11:22:49;5.00;99.90
11818;DHT22;5966;52.402;5.322;2023-03-01T11:25:23;5.10;99.90
11818;DHT22;5966;52.402;5.322;2023-03-01T11:27:53;5.10;99.90
11818;DHT22;5966;52.402;5.322;2023-03-01T11:30:25;5.20;99.90
11818;DHT22;5966;52.402;5.322;2023-03-01T11:33:13;5.20;99.90
11818;DHT22;5966;52.402;5.322;2023-03-01T11:35:49;5.30;99.90
11818;DHT22;5966;52.402;5.322;2023-03-01T11:38:22;5.30;99.90
11818;DHT22;5966;52.402;5.322;2023-03-01T11:40:55;5.40;99.90
11818;DHT22;5966;52.402;5.322;2023-03-01T11:43:33;5.40;99.90
11818;DHT22;5966;52.402;5.322;2023-03-01T11:46:34;5.50;99.90
11818;DHT22;5966;52.402;5.322;2023-03-01T11:49:24;5.50;99.90
11818;DHT22;5966;52.402;5.322;2023-03-01T11:52:03;5.50;99.90
11818;DHT22;5966;52.402;5.322;2023-03-01T11:54:48;5.50;99.90
11818;DHT22;5966;52.402;5.322;2023-03-01T11:57:38;5.60;99.90
11818;DHT22;5966;52.402;5.322;2023-03-01T12:00:25;5.70;99.90
11818;DHT22;5966;52.402;5.322;2023-03-01T12:03:16;5.80;99.90
11818;DHT22;5966;52.402;5.322;2023-03-01T12:08:42;5.80;99.90
11818;DHT22;5966;52.402;5.322;2023-03-01T12:11:23;5.90;99.90
11818;DHT22;5966;52.402;5.322;2023-03-01T12:14:22;6.00;99.90
11818;DHT22;5966;52.402;5.322;2023-03-01T12:17:25;5.90;99.90
11818;DHT22;5966;52.402;5.322;2023-03-01T12:20:11;6.00;99.90
11818;DHT22;5966;52.402;5.322;2023-03-01T12:22:57;6.10;99.90
11818;DHT22;5966;52.402;5.322;2023-03-01T12:25:42;6.10;99.90
11818;DHT22;5966;52.402;5.322;2023-03-01T12:28:46;6.10;99.90
11818;DHT22;5966;52.402;5.322;2023-03-01T12:37:29;6.20;99.90
11818;DHT22;5966;52.402;5.322;2023-03-01T12:43:19;6.30;99.90
11818;DHT22;5966;52.402;5.322;2023-03-01T12:46:02;6.30;99.90
11818;DHT22;5966;52.402;5.322;2023-03-01T12:48:47;6.40;99.90
11818;DHT22;5966;52.402;5.322;2023-03-01T12:51:22;6.50;99.90
11818;DHT22;5966;52.402;5.322;2023-03-01T12:53:53;6.50;99.90
11818;DHT22;5966;52.402;5.322;2023-03-01T12:59:51;6.50;99.90
11818;DHT22;5966;52.402;5.322;2023-03-01T13:02:32;6.50;99.90
11818;DHT22;5966;52.402;5.322;2023-03-01T13:05:26;6.60;99.90
11818;DHT22;5966;52.402;5.322;2023-03-01T13:08:03;6.60;99.90
11818;DHT22;5966;52.402;5.322;2023-03-01T13:10:42;6.50;99.90
11818;DHT22;5966;52.402;5.322;2023-03-01T13:13:22;6.50;99.90
11818;DHT22;5966;52.402;5.322;2023-03-01T13:15:52;6.50;99.90
11818;DHT22;5966;52.402;5.322;2023-03-01T13:18:34;6.50;99.90
11818;DHT22;5966;52.402;5.322;2023-03-01T13:21:04;6.50;99.90
11818;DHT22;5966;52.402;5.322;2023-03-01T13:24:00;6.50;99.90
11818;DHT22;5966;52.402;5.322;2023-03-01T13:27:18;6.50;99.90
11818;DHT22;5966;52.402;5.322;2023-03-01T13:30:42;6.50;99.90
11818;DHT22;5966;52.402;5.322;2023-03-01T13:33:46;6.60;99.90
11818;DHT22;5966;52.402;5.322;2023-03-01T13:36:46;6.60;99.90
11818;DHT22;5966;52.402;5.322;2023-03-01T13:39:30;6.60;99.90
11818;DHT22;5966;52.402;5.322;2023-03-01T13:42:03;6.60;99.90
11818;DHT22;5966;52.402;5.322;2023-03-01T13:44:56;6.70;99.90
11818;DHT22;5966;52.402;5.322;2023-03-01T13:47:36;6.70;99.90
11818;DHT22;5966;52.402;5.322;2023-03-01T13:50:32;6.70;99.90
11818;DHT22;5966;52.402;5.322;2023-03-01T13:53:15;6.70;99.90
11818;DHT22;5966;52.402;5.322;2023-03-01T13:55:51;6.70;99.90
11818;DHT22;5966;52.402;5.322;2023-03-01T14:01:24;6.80;99.90
11818;DHT22;5966;52.402;5.322;2023-03-01T14:04:39;6.80;99.90
11818;DHT22;5966;52.402;5.322;2023-03-01T14:07:19;6.80;99.90
11818;DHT22;5966;52.402;5.322;2023-03-01T14:09:55;6.70;99.90
11818;DHT22;5966;52.402;5.322;2023-03-01T14:15:38;6.80;99.90
11818;DHT22;5966;52.402;5.322;2023-03-01T14:18:50;6.80;99.90
11818;DHT22;5966;52.402;5.322;2023-03-01T14:21:34;6.90;99.90
11818;DHT22;5966;52.402;5.322;2023-03-01T14:49:44;7.00;99.90
11818;DHT22;5966;52.402;5.322;2023-03-01T14:55:06;7.10;99.90
11818;DHT22;5966;52.402;5.322;2023-03-01T15:13:47;7.20;99.90
11818;DHT22;5966;52.402;5.322;2023-03-01T15:16:40;7.20;99.90
11818;DHT22;5966;52.402;5.322;2023-03-01T15:22:46;7.20;99.90
11818;DHT22;5966;52.402;5.322;2023-03-01T15:31:28;7.20;99.90
11818;DHT22;5966;52.402;5.322;2023-03-01T15:34:23;7.20;99.90
11818;DHT22;5966;52.402;5.322;2023-03-01T15:37:02;7.20;99.90
11818;DHT22;5966;52.402;5.322;2023-03-01T15:39:53;7.20;99.90
11818;DHT22;5966;52.402;5.322;2023-03-01T15:45:56;7.00;99.90
11818;DHT22;5966;52.402;5.322;2023-03-01T15:48:55;7.10;99.90
11818;DHT22;5966;52.402;5.322;2023-03-01T15:51:54;7.00;99.90
11818;DHT22;5966;52.402;5.322;2023-03-01T15:54:29;7.00;99.90
11818;DHT22;5966;52.402;5.322;2023-03-01T15:57:12;7.00;99.90
11818;DHT22;5966;52.402;5.322;2023-03-01T15:59:49;6.90;99.90
11818;DHT22;5966;52.402;5.322;2023-03-01T16:02:43;7.00;99.90
11818;DHT22;5966;52.402;5.322;2023-03-01T16:05:38;7.00;99.90
11818;DHT22;5966;52.402;5.322;2023-03-01T16:08:39;7.00;99.90
11818;DHT22;5966;52.402;5.322;2023-03-01T16:14:27;6.90;99.90
11818;DHT22;5966;52.402;5.322;2023-03-01T16:17:02;6.90;99.90
11818;DHT22;5966;52.402;5.322;2023-03-01T16:19:41;6.90;99.90
11818;DHT22;5966;52.402;5.322;2023-03-01T16:22:13;6.80;99.90
11818;DHT22;5966;52.402;5.322;2023-03-01T16:24:52;6.80;99.90
11818;DHT22;5966;52.402;5.322;2023-03-01T16:27:50;6.70;99.90
11818;DHT22;5966;52.402;5.322;2023-03-01T16:30:22;6.70;99.90
11818;DHT22;5966;52.402;5.322;2023-03-01T16:32:54;6.60;99.90
11818;DHT22;5966;52.402;5.322;2023-03-01T16:35:32;6.60;99.90
11818;DHT22;5966;52.402;5.322;2023-03-01T16:38:05;6.60;99.90
11818;DHT22;5966;52.402;5.322;2023-03-01T16:40:39;6.50;99.90
11818;DHT22;5966;52.402;5.322;2023-03-01T16:45:44;6.50;99.90
11818;DHT22;5966;52.402;5.322;2023-03-01T16:48:15;6.40;99.90
11818;DHT22;5966;52.402;5.322;2023-03-01T16:50:44;6.40;99.90
11818;DHT22;5966;52.402;5.322;2023-03-01T16:53:18;6.30;99.90
11818;DHT22;5966;52.402;5.322;2023-03-01T16:55:53;6.30;99.90
11818;DHT22;5966;52.402;5.322;2023-03-01T16:58:24;6.20;99.90
11818;DHT22;5966;52.402;5.322;2023-03-01T17:00:55;6.10;99.90
11818;DHT22;5966;52.402;5.322;2023-03-01T17:03:26;6.10;99.90
11818;DHT22;5966;52.402;5.322;2023-03-01T17:05:58;6.10;99.90
11818;DHT22;5966;52.402;5.322;2023-03-01T17:08:32;6.10;99.90
11818;DHT22;5966;52.402;5.322;2023-03-01T17:11:19;6.00;99.90
11818;DHT22;5966;52.402;5.322;2023-03-01T17:13:54;5.90;99.90
11818;DHT22;5966;52.402;5.322;2023-03-01T17:19:00;5.90;99.90
11818;DHT22;5966;52.402;5.322;2023-03-01T17:21:43;5.80;99.90
11818;DHT22;5966;52.402;5.322;2023-03-01T17:24:25;5.80;99.90
11818;DHT22;5966;52.402;5.322;2023-03-01T17:29:41;5.70;99.90
11818;DHT22;5966;52.402;5.322;2023-03-01T17:32:18;5.60;99.90
11818;DHT22;5966;52.402;5.322;2023-03-01T17:34:48;5.50;99.90
11818;DHT22;5966;52.402;5.322;2023-03-01T17:37:20;5.50;99.90
11818;DHT22;5966;52.402;5.322;2023-03-01T17:39:55;5.40;99.90
11818;DHT22;5966;52.402;5.322;2023-03-01T17:42:38;5.40;99.90
11818;DHT22;5966;52.402;5.322;2023-03-01T17:45:16;5.30;99.90
11818;DHT22;5966;52.402;5.322;2023-03-01T17:47:51;5.20;99.90
11818;DHT22;5966;52.402;5.322;2023-03-01T17:50:32;5.20;99.90
11818;DHT22;5966;52.402;5.322;2023-03-01T17:56:50;5.10;99.90
11818;DHT22;5966;52.402;5.322;2023-03-01T18:02:41;5.00;99.90
11818;DHT22;5966;52.402;5.322;2023-03-01T18:05:38;5.00;99.90
11818;DHT22;5966;52.402;5.322;2023-03-01T18:08:34;4.90;99.90
11818;DHT22;5966;52.402;5.322;2023-03-01T18:11:19;4.80;99.90
11818;DHT22;5966;52.402;5.322;2023-03-01T18:13:52;4.80;99.90
11818;DHT22;5966;52.402;5.322;2023-03-01T18:16:21;4.70;99.90
11818;DHT22;5966;52.402;5.322;2023-03-01T18:18:52;4.70;99.90
11818;DHT22;5966;52.402;5.322;2023-03-01T18:21:22;4.60;99.90